Time;durP1;ratioP1;P1;durP2;ratioP2;P2;SDS_P1;SDS_P2;PMS_P1;PMS_P2;Temp;Humidity;BMP_temperature;BMP_pressure;BME280_temperature;BME280_humidity;BME280_pressure;Samples;Min_cycle;Max_cycle;Signal;HPM_P1;HPM_P2
2024/01/23 00:01:18;;;;;;;423.40;205.40;;;-2.00;99.90;;;;;;5094878;28;20466;-54
2024/01/23 00:03:43;;;;;;;491.58;230.25;;;-2.00;99.90;;;;;;5094699;28;20016;-54
2024/01/23 00:06:09;;;;;;;516.88;238.57;;;-1.90;99.90;;;;;;5094548;28;20054;-54
2024/01/23 00:08:35;;;;;;;670.88;303.98;;;-1.90;99.90;;;;;;5094210;28;20114;-54
2024/01/23 00:11:01;;;;;;;669.17;302.17;;;-1.80;99.90;;;;;;5094830;28;20465;-54
2024/01/23 00:13:27;;;;;;;643.10;299.95;;;-1.80;99.90;;;;;;5094157;28;20024;-54
2024/01/23 00:15:53;;;;;;;628.80;291.65;;;-1.60;99.90;;;;;;5094653;28;20084;-54
2024/01/23 00:18:18;;;;;;;627.97;287.83;;;-1.60;99.90;;;;;;5094236;28;20155;-54
2024/01/23 00:20:46;;;;;;;673.05;299.80;;;-1.50;99.90;;;;;;5094626;28;20032;-54
2024/01/23 00:23:13;;;;;;;679.28;315.63;;;-1.50;99.90;;;;;;5093816;28;20020;-54
2024/01/23 00:25:38;;;;;;;645.63;312.63;;;-1.30;99.90;;;;;;5094505;28;20035;-54
2024/01/23 00:28:06;;;;;;;630.50;302.75;;;-1.40;99.90;;;;;;5094285;28;20040;-55
2024/01/23 00:30:32;;;;;;;622.38;300.50;;;-1.40;99.90;;;;;;5094690;28;20035;-54
2024/01/23 00:32:59;;;;;;;613.22;292.85;;;-1.30;99.90;;;;;;5094613;28;20046;-54
2024/01/23 00:35:25;;;;;;;576.42;280.67;;;-1.30;99.90;;;;;;5094009;28;20035;-54
2024/01/23 00:37:51;;;;;;;683.30;323.25;;;-1.20;99.90;;;;;;5094037;28;20385;-55
2024/01/23 00:40:17;;;;;;;640.40;300.05;;;-1.30;99.90;;;;;;5094476;28;20032;-54
2024/01/23 00:42:43;;;;;;;650.10;306.60;;;-1.40;99.90;;;;;;5094242;28;20024;-54
2024/01/23 00:45:09;;;;;;;646.85;309.75;;;-1.40;99.90;;;;;;5094343;28;20039;-54
2024/01/23 00:47:35;;;;;;;625.10;293.88;;;-1.40;99.90;;;;;;5094092;28;20052;-54
2024/01/23 00:50:01;;;;;;;779.58;333.08;;;-1.40;99.90;;;;;;5093992;28;20047;-54
2024/01/23 00:52:26;;;;;;;1336.45;509.55;;;-1.40;99.90;;;;;;5094301;28;20111;-54
2024/01/23 00:54:54;;;;;;;1545.57;578.63;;;-1.30;99.90;;;;;;5094263;28;20448;-55
2024/01/23 00:57:20;;;;;;;1553.90;580.50;;;-1.20;99.90;;;;;;5093522;28;20055;-54
2024/01/23 00:59:46;;;;;;;1335.20;526.10;;;-1.20;99.90;;;;;;5094357;28;20506;-54
2024/01/23 01:02:12;;;;;;;1217.57;498.08;;;-1.20;99.90;;;;;;5093823;28;20124;-55
2024/01/23 01:04:37;;;;;;;1189.07;497.67;;;-1.10;99.90;;;;;;5093921;28;20024;-55
2024/01/23 01:07:03;;;;;;;1158.78;482.20;;;-1.20;99.90;;;;;;5093773;28;20024;-55
2024/01/23 01:09:29;;;;;;;860.72;399.40;;;-1.10;99.90;;;;;;5094042;28;20040;-54
2024/01/23 01:11:55;;;;;;;799.10;377.48;;;-1.10;99.90;;;;;;5093515;28;20025;-53
2024/01/23 01:14:21;;;;;;;757.05;362.30;;;-1.00;99.90;;;;;;5094284;28;20034;-53
2024/01/23 01:16:47;;;;;;;766.33;359.15;;;-1.00;99.90;;;;;;5093616;28;20105;-53
2024/01/23 01:19:13;;;;;;;766.25;350.23;;;-1.00;99.90;;;;;;5093584;28;20044;-53
2024/01/23 01:21:39;;;;;;;725.42;341.80;;;-1.00;99.90;;;;;;5093972;28;20107;-53
2024/01/23 01:24:05;;;;;;;679.33;324.83;;;-1.00;99.90;;;;;;5093915;28;20017;-53
2024/01/23 01:26:31;;;;;;;643.85;308.67;;;-1.00;99.90;;;;;;5093620;28;20481;-53
2024/01/23 01:28:56;;;;;;;632.05;300.92;;;-1.00;99.90;;;;;;5093637;28;20042;-53
2024/01/23 01:31:24;;;;;;;672.67;326.15;;;-0.90;99.90;;;;;;5094253;28;20056;-53
2024/01/23 01:33:49;;;;;;;652.30;314.70;;;-0.90;99.90;;;;;;5095278;28;20024;-53
2024/01/23 01:36:15;;;;;;;629.13;306.88;;;-0.90;99.90;;;;;;5097630;28;20043;-53
2024/01/23 01:38:41;;;;;;;620.17;294.77;;;-0.90;99.90;;;;;;5097296;28;20152;-53
2024/01/23 01:41:07;;;;;;;614.83;289.80;;;-0.90;99.90;;;;;;5097631;28;20035;-53
2024/01/23 01:43:34;;;;;;;605.40;280.70;;;-1.00;99.90;;;;;;5097398;28;20048;-53
2024/01/23 01:46:20;;;;;;;594.65;279.52;;;-0.90;99.90;;;;;;5097534;28;20048;-53
2024/01/23 01:48:47;;;;;;;590.13;281.15;;;-0.80;99.90;;;;;;5096560;28;20044;-53
2024/01/23 01:51:14;;;;;;;566.80;268.02;;;-0.90;99.90;;;;;;5097518;28;20020;-53
2024/01/23 01:53:41;;;;;;;560.00;264.33;;;-0.90;99.90;;;;;;5097043;28;20016;-53
2024/01/23 01:56:08;;;;;;;532.85;250.60;;;-0.90;99.90;;;;;;5097038;28;20032;-53
2024/01/23 01:58:34;;;;;;;500.80;228.52;;;-0.90;99.90;;;;;;5097035;28;20040;-53
2024/01/23 02:01:00;;;;;;;505.73;233.60;;;-0.90;99.90;;;;;;5094733;28;20085;-53
2024/01/23 02:03:29;;;;;;;533.42;250.70;;;-0.90;99.90;;;;;;5096728;28;20286;-53
2024/01/23 02:06:01;;;;;;;566.22;276.73;;;-1.00;99.90;;;;;;5096829;28;20028;-53
2024/01/23 02:08:28;;;;;;;544.50;264.80;;;-1.00;99.90;;;;;;5096800;28;20051;-53
2024/01/23 02:10:55;;;;;;;536.33;254.05;;;-1.00;99.90;;;;;;5096750;28;20085;-53
2024/01/23 02:13:22;;;;;;;428.65;202.32;;;-1.10;99.90;;;;;;5096628;28;20020;-53
2024/01/23 02:15:48;;;;;;;365.73;171.63;;;-0.90;99.90;;;;;;5097002;28;20035;-53
2024/01/23 02:18:14;;;;;;;440.80;206.32;;;-1.10;99.90;;;;;;5096544;28;20031;-53
2024/01/23 02:20:40;;;;;;;441.38;207.32;;;-1.30;99.90;;;;;;5096883;28;20032;-53
2024/01/23 02:23:12;;;;;;;472.95;221.68;;;-1.30;99.90;;;;;;5096225;28;20085;-53
2024/01/23 02:25:39;;;;;;;489.52;232.23;;;-1.40;99.90;;;;;;5096456;28;20031;-53
2024/01/23 02:28:04;;;;;;;490.58;231.05;;;-1.30;99.90;;;;;;5096777;28;20389;-53
2024/01/23 02:30:31;;;;;;;504.33;239.48;;;-1.30;99.90;;;;;;5096591;28;20028;-53
2024/01/23 02:32:57;;;;;;;508.85;239.40;;;-1.30;99.90;;;;;;5096540;28;20381;-53
2024/01/23 02:35:23;;;;;;;499.88;238.70;;;-1.40;99.90;;;;;;5096162;28;20032;-53
2024/01/23 02:37:48;;;;;;;524.15;245.55;;;-1.40;99.90;;;;;;5096603;28;20112;-53
2024/01/23 02:40:14;;;;;;;533.92;253.10;;;-1.50;99.90;;;;;;5096005;28;20432;-53
2024/01/23 02:42:40;;;;;;;534.42;257.38;;;-1.50;99.90;;;;;;5095720;28;20392;-53
2024/01/23 02:45:07;;;;;;;533.65;256.88;;;-1.40;99.90;;;;;;5095453;28;20047;-53
2024/01/23 02:47:33;;;;;;;519.47;249.60;;;-1.50;99.90;;;;;;5096210;28;20466;-53
2024/01/23 02:49:59;;;;;;;518.33;247.38;;;-1.60;99.90;;;;;;5096013;28;20089;-53
2024/01/23 02:52:27;;;;;;;513.88;246.13;;;-1.60;99.90;;;;;;5096016;28;20020;-53
2024/01/23 02:54:53;;;;;;;523.30;247.48;;;-1.50;99.90;;;;;;5096259;28;20051;-53
2024/01/23 02:57:19;;;;;;;502.17;232.43;;;-1.50;99.90;;;;;;5095733;28;20028;-53
2024/01/23 02:59:45;;;;;;;512.83;249.30;;;-1.50;99.90;;;;;;5093764;28;20462;-53
2024/01/23 03:02:11;;;;;;;496.83;236.68;;;-1.40;99.90;;;;;;5095580;28;20074;-53
2024/01/23 03:04:36;;;;;;;481.73;226.48;;;-1.50;99.90;;;;;;5095753;28;20382;-53
2024/01/23 03:07:02;;;;;;;449.88;214.40;;;-1.50;99.90;;;;;;5095638;28;20039;-53
2024/01/23 03:09:28;;;;;;;478.13;216.00;;;-1.60;99.90;;;;;;5095863;28;20473;-53
2024/01/23 03:11:54;;;;;;;466.55;219.82;;;-1.70;99.90;;;;;;5095261;28;20115;-53
2024/01/23 03:14:20;;;;;;;471.08;215.43;;;-2.00;99.90;;;;;;5095925;28;20028;-53
2024/01/23 03:16:46;;;;;;;466.85;212.93;;;-1.90;99.90;;;;;;5095871;28;20495;-53
2024/01/23 03:19:11;;;;;;;487.30;220.52;;;-1.90;99.90;;;;;;5095346;28;20474;-53
2024/01/23 03:21:37;;;;;;;459.20;206.18;;;-1.90;99.90;;;;;;5095434;28;20020;-53
2024/01/23 03:24:04;;;;;;;438.80;200.65;;;-1.90;99.90;;;;;;5095627;28;20044;-53
2024/01/23 03:26:30;;;;;;;467.95;218.18;;;-1.90;99.90;;;;;;5095343;28;20020;-53
2024/01/23 03:28:56;;;;;;;517.05;230.63;;;-1.80;99.90;;;;;;5095644;28;20461;-53
2024/01/23 03:31:22;;;;;;;529.60;255.43;;;-1.70;99.90;;;;;;5095430;28;20031;-53
2024/01/23 03:33:48;;;;;;;525.22;243.95;;;-1.80;99.90;;;;;;5095118;28;20128;-53
2024/01/23 03:36:14;;;;;;;493.65;230.85;;;-1.70;99.90;;;;;;5094376;28;20044;-53
2024/01/23 03:38:40;;;;;;;429.10;203.73;;;-1.80;99.90;;;;;;5095117;28;20108;-53
2024/01/23 03:41:07;;;;;;;444.42;200.80;;;-1.90;99.90;;;;;;5095269;28;20489;-53
2024/01/23 03:43:33;;;;;;;460.73;209.95;;;-1.80;99.90;;;;;;5095029;28;20078;-53
2024/01/23 03:45:58;;;;;;;513.88;238.57;;;-1.70;99.90;;;;;;5095285;28;20052;-53
2024/01/23 03:48:24;;;;;;;512.70;241.65;;;-1.80;99.90;;;;;;5094831;28;20057;-53
2024/01/23 03:50:50;;;;;;;504.95;236.60;;;-1.80;99.90;;;;;;5094998;28;20073;-53
2024/01/23 03:53:16;;;;;;;511.85;243.32;;;-1.90;99.90;;;;;;5094893;28;20039;-53
2024/01/23 03:55:42;;;;;;;517.15;241.57;;;-1.90;99.90;;;;;;5094758;28;20032;-53
2024/01/23 03:58:08;;;;;;;498.25;233.10;;;-1.90;99.90;;;;;;5094927;28;20032;-53
2024/01/23 04:00:33;;;;;;;507.30;237.13;;;-1.90;99.90;;;;;;5095137;28;20119;-53
2024/01/23 04:02:59;;;;;;;511.00;249.90;;;-1.90;99.90;;;;;;5094868;28;20100;-53
2024/01/23 04:05:25;;;;;;;297.45;137.38;;;-2.00;99.90;;;;;;5094960;28;20032;-53
2024/01/23 04:07:51;;;;;;;303.98;139.40;;;-1.90;99.90;;;;;;5094577;28;20024;-53
2024/01/23 04:10:17;;;;;;;305.88;142.48;;;-1.90;99.90;;;;;;5094496;28;20020;-53
2024/01/23 04:12:43;;;;;;;310.85;146.43;;;-2.00;99.90;;;;;;5093247;28;20150;-53
2024/01/23 04:15:09;;;;;;;326.15;153.38;;;-2.10;99.90;;;;;;5094829;28;20039;-53
2024/01/23 04:17:35;;;;;;;367.45;172.07;;;-2.00;99.90;;;;;;5094215;28;20036;-53
2024/01/23 04:20:01;;;;;;;361.73;171.55;;;-2.00;99.90;;;;;;5094452;28;20031;-53
2024/01/23 04:22:27;;;;;;;391.10;181.65;;;-1.90;99.90;;;;;;5094374;28;20067;-53
2024/01/23 04:24:52;;;;;;;403.35;189.18;;;-2.00;99.90;;;;;;5094239;28;20461;-53
2024/01/23 04:27:19;;;;;;;407.55;187.00;;;-1.90;99.90;;;;;;5094531;28;20024;-53
2024/01/23 04:29:44;;;;;;;461.67;213.15;;;-2.00;99.90;;;;;;5094369;28;20031;-53
2024/01/23 04:32:10;;;;;;;435.25;205.98;;;-1.90;99.90;;;;;;5094177;28;20024;-53
2024/01/23 04:34:36;;;;;;;443.33;209.07;;;-1.90;99.90;;;;;;5094404;28;20028;-53
2024/01/23 04:37:02;;;;;;;432.73;196.60;;;-1.70;99.90;;;;;;5094597;28;20461;-53
2024/01/23 04:39:28;;;;;;;416.52;193.88;;;-1.60;99.90;;;;;;5094006;28;20031;-53
2024/01/23 04:41:54;;;;;;;406.17;191.43;;;-1.60;99.90;;;;;;5094327;28;20501;-53
2024/01/23 04:44:20;;;;;;;422.92;202.68;;;-1.70;99.90;;;;;;5094421;28;20028;-53
2024/01/23 04:46:46;;;;;;;410.65;190.45;;;-1.50;99.90;;;;;;5094205;28;20031;-53
2024/01/23 04:49:12;;;;;;;393.48;181.88;;;-1.50;99.90;;;;;;5094490;28;20539;-53
2024/01/23 04:51:38;;;;;;;383.48;177.07;;;-1.50;99.90;;;;;;5094075;28;20024;-53
2024/01/23 04:54:03;;;;;;;390.75;187.70;;;-1.50;99.90;;;;;;5094117;28;20314;-53
2024/01/23 04:56:30;;;;;;;419.17;194.20;;;-1.40;99.90;;;;;;5094339;28;20020;-53
2024/01/23 04:58:55;;;;;;;419.08;190.18;;;-1.40;99.90;;;;;;5094269;28;20481;-53
2024/01/23 05:01:21;;;;;;;403.48;194.95;;;-1.40;99.90;;;;;;5093577;28;20032;-53
2024/01/23 05:03:47;;;;;;;426.88;197.63;;;-1.40;99.90;;;;;;5094214;28;20094;-53
2024/01/23 05:06:13;;;;;;;436.00;205.52;;;-1.30;99.90;;;;;;5094021;28;20074;-53
2024/01/23 05:08:39;;;;;;;459.90;207.80;;;-1.30;99.90;;;;;;5095229;28;20432;-53
2024/01/23 05:11:05;;;;;;;443.55;206.70;;;-1.30;99.90;;;;;;5098082;28;20020;-53
2024/01/23 05:13:30;;;;;;;450.13;203.80;;;-1.20;99.90;;;;;;5097993;28;20044;-53
2024/01/23 05:15:56;;;;;;;440.88;208.25;;;-1.20;99.90;;;;;;5097719;28;20028;-53
2024/01/23 05:18:22;;;;;;;472.23;228.05;;;-1.10;99.90;;;;;;5097928;28;20038;-53
2024/01/23 05:20:48;;;;;;;460.42;215.75;;;-1.10;99.90;;;;;;5097807;28;20028;-53
2024/01/23 05:23:14;;;;;;;449.80;213.50;;;-1.10;99.90;;;;;;5097529;28;20080;-53
2024/01/23 05:25:42;;;;;;;492.52;235.20;;;-1.00;99.90;;;;;;5097732;28;20097;-53
2024/01/23 05:28:08;;;;;;;481.10;232.35;;;-0.90;99.90;;;;;;5097776;28;20107;-53
2024/01/23 05:30:34;;;;;;;486.27;219.90;;;-0.90;99.90;;;;;;5097686;28;20078;-53
2024/01/23 05:33:00;;;;;;;488.35;222.10;;;-0.90;99.90;;;;;;5097229;28;20112;-53
2024/01/23 05:35:26;;;;;;;474.27;218.50;;;-0.90;99.90;;;;;;5097764;28;20056;-53
2024/01/23 05:37:51;;;;;;;494.23;229.13;;;-0.90;99.90;;;;;;5097497;28;20024;-53
2024/01/23 05:40:19;;;;;;;469.02;216.20;;;-0.80;99.90;;;;;;5097378;28;20080;-53
2024/01/23 05:42:44;;;;;;;499.35;227.40;;;-0.80;99.90;;;;;;5097187;28;20445;-53
2024/01/23 05:45:10;;;;;;;490.38;225.63;;;-0.60;99.90;;;;;;5097512;28;20024;-53
2024/01/23 05:47:36;;;;;;;484.88;229.27;;;-0.60;99.90;;;;;;5097139;28;20037;-53
2024/01/23 05:50:02;;;;;;;497.80;231.40;;;-0.50;99.90;;;;;;5097623;28;20059;-53
2024/01/23 05:52:28;;;;;;;484.15;225.00;;;-0.60;99.90;;;;;;5096879;28;20024;-54
2024/01/23 05:54:54;;;;;;;493.40;227.15;;;-0.50;99.90;;;;;;5097084;28;20055;-53
2024/01/23 05:57:20;;;;;;;469.33;220.35;;;-0.50;99.90;;;;;;5097244;28;20059;-53
2024/01/23 05:59:46;;;;;;;497.13;235.68;;;-0.40;99.90;;;;;;5097190;28;20024;-53
2024/01/23 06:02:11;;;;;;;497.48;233.73;;;-0.50;99.90;;;;;;5096742;28;20054;-53
2024/01/23 06:04:37;;;;;;;481.70;224.80;;;-0.60;99.90;;;;;;5096978;28;20382;-53
2024/01/23 06:07:06;;;;;;;478.60;220.35;;;-0.40;99.90;;;;;;5097034;28;20024;-53
2024/01/23 06:09:32;;;;;;;469.50;211.27;;;-0.40;99.90;;;;;;5096823;28;20039;-53
2024/01/23 06:11:58;;;;;;;457.48;209.60;;;-0.30;99.90;;;;;;5096851;28;20020;-53
2024/01/23 06:14:24;;;;;;;504.17;240.45;;;-0.30;99.90;;;;;;5096823;28;20068;-53
2024/01/23 06:16:50;;;;;;;499.42;231.23;;;-0.40;99.90;;;;;;5096837;28;20062;-53
2024/01/23 06:19:18;;;;;;;441.40;205.43;;;-0.20;99.90;;;;;;5096141;28;20085;-53
2024/01/23 06:21:44;;;;;;;470.60;223.38;;;-0.20;99.90;;;;;;5096022;28;20024;-54
2024/01/23 06:24:10;;;;;;;439.50;213.00;;;-0.10;99.90;;;;;;5096310;28;20047;-53
2024/01/23 06:26:36;;;;;;;442.67;216.07;;;-0.20;99.90;;;;;;5095750;28;20036;-53
2024/01/23 06:29:03;;;;;;;440.80;217.35;;;-0.10;99.90;;;;;;5097314;28;20058;-53
2024/01/23 06:31:30;;;;;;;439.40;216.65;;;0.10;99.90;;;;;;5096620;28;20024;-53
2024/01/23 06:33:56;;;;;;;437.20;213.63;;;0.10;99.90;;;;;;5095505;28;20039;-55
2024/01/23 06:36:22;;;;;;;449.65;209.20;;;0.20;99.90;;;;;;5095544;28;20032;-53
2024/01/23 06:38:48;;;;;;;414.33;199.88;;;0.20;99.90;;;;;;5096210;28;20028;-53
2024/01/23 06:41:14;;;;;;;396.60;188.88;;;0.20;99.90;;;;;;5097129;28;20107;-53
2024/01/23 06:43:40;;;;;;;402.92;192.23;;;0.20;99.90;;;;;;5096884;28;20081;-53
2024/01/23 06:46:06;;;;;;;364.52;166.60;;;0.30;99.90;;;;;;5094063;28;20032;-53
2024/01/23 06:48:32;;;;;;;352.67;167.45;;;0.30;99.90;;;;;;5096404;28;20027;-53
2024/01/23 06:50:58;;;;;;;328.42;159.65;;;0.40;99.90;;;;;;5096689;28;20035;-53
2024/01/23 06:53:24;;;;;;;326.05;155.93;;;0.50;99.90;;;;;;5096293;28;20024;-53
2024/01/23 06:55:50;;;;;;;341.65;159.90;;;0.60;99.90;;;;;;5084944;28;20028;-53
2024/01/23 06:58:15;;;;;;;336.85;162.38;;;0.70;99.90;;;;;;5096908;28;20020;-53
2024/01/23 07:00:41;;;;;;;344.92;165.50;;;0.70;99.90;;;;;;5094231;28;20056;-53
2024/01/23 07:03:10;;;;;;;346.08;164.23;;;0.80;99.90;;;;;;5093374;28;20054;-53
2024/01/23 07:05:36;;;;;;;373.30;186.10;;;0.90;99.90;;;;;;5096880;28;20493;-53
2024/01/23 07:08:05;;;;;;;363.85;180.38;;;1.00;99.90;;;;;;5096231;28;20069;-53
2024/01/23 07:10:31;;;;;;;339.50;172.07;;;1.20;99.90;;;;;;5094818;28;20023;-53
2024/01/23 07:12:57;;;;;;;333.17;162.23;;;1.30;99.90;;;;;;5096627;28;20020;-53
2024/01/23 07:15:23;;;;;;;333.48;162.27;;;1.40;99.90;;;;;;5096214;28;20442;-53
2024/01/23 07:17:51;;;;;;;312.48;158.52;;;1.40;99.90;;;;;;5094066;28;20349;-53
2024/01/23 07:20:17;;;;;;;308.65;153.18;;;1.50;99.90;;;;;;5083683;28;20024;-53
2024/01/23 07:22:42;;;;;;;323.48;157.20;;;1.60;99.90;;;;;;5094517;28;20028;-54
2024/01/23 07:25:09;;;;;;;333.40;161.10;;;1.60;99.90;;;;;;5095966;28;20036;-53
2024/01/23 07:27:35;;;;;;;429.58;197.07;;;1.50;99.90;;;;;;5097019;28;20024;-53
2024/01/23 07:30:01;;;;;;;407.23;196.48;;;1.60;99.90;;;;;;5095610;28;20027;-54
2024/01/23 07:32:27;;;;;;;521.75;265.45;;;1.50;99.90;;;;;;5093397;28;20550;-53
2024/01/23 07:34:52;;;;;;;533.85;282.33;;;1.60;99.90;;;;;;5094015;28;20488;-53
2024/01/23 07:37:18;;;;;;;540.20;284.80;;;1.60;99.90;;;;;;5096544;28;20024;-54
2024/01/23 07:39:44;;;;;;;525.35;276.33;;;1.50;99.90;;;;;;5096748;28;20036;-53
2024/01/23 07:42:11;;;;;;;760.78;381.88;;;1.60;99.90;;;;;;5094630;28;20032;-54
2024/01/23 07:44:39;;;;;;;679.05;347.63;;;1.70;99.90;;;;;;5095286;28;20028;-55
2024/01/23 07:47:08;;;;;;;585.17;308.17;;;1.60;99.90;;;;;;5091219;28;20028;-53
2024/01/23 07:49:34;;;;;;;557.40;304.05;;;1.50;99.90;;;;;;5085757;28;20047;-53
2024/01/23 07:52:00;;;;;;;560.20;299.70;;;1.50;99.90;;;;;;5075074;28;20025;-53
2024/01/23 07:54:26;;;;;;;517.63;267.00;;;1.40;99.90;;;;;;5086337;28;20024;-53
2024/01/23 07:56:52;;;;;;;519.22;266.95;;;1.50;99.90;;;;;;5094567;28;20036;-53
2024/01/23 07:59:18;;;;;;;497.77;266.65;;;1.50;99.90;;;;;;5095955;28;20027;-53
2024/01/23 08:01:44;;;;;;;494.83;256.63;;;1.50;99.90;;;;;;5094386;28;20388;-53
2024/01/23 08:04:10;;;;;;;488.98;254.98;;;1.70;99.90;;;;;;5096173;28;20027;-53
2024/01/23 08:06:37;;;;;;;457.50;236.13;;;1.60;99.90;;;;;;5094991;28;20020;-53
2024/01/23 08:09:06;;;;;;;446.17;222.05;;;1.70;99.90;;;;;;5095035;28;20036;-53
2024/01/23 08:11:32;;;;;;;392.85;197.25;;;1.70;99.90;;;;;;5095943;28;20562;-53
2024/01/23 08:13:58;;;;;;;385.40;195.18;;;1.80;99.90;;;;;;5095265;28;20051;-53
2024/01/23 08:16:26;;;;;;;392.55;195.68;;;1.80;99.90;;;;;;5095810;28;20032;-53
2024/01/23 08:18:52;;;;;;;388.33;189.60;;;1.80;99.90;;;;;;5095938;28;20369;-53
2024/01/23 08:21:18;;;;;;;362.60;179.07;;;1.80;99.90;;;;;;5093549;28;20101;-53
2024/01/23 08:23:44;;;;;;;370.85;183.20;;;2.00;99.90;;;;;;5095461;28;20378;-53
2024/01/23 08:26:10;;;;;;;374.75;189.50;;;2.00;99.90;;;;;;5096004;28;20035;-53
2024/01/23 08:28:36;;;;;;;387.80;188.63;;;2.10;99.90;;;;;;5093189;28;20370;-53
2024/01/23 08:31:05;;;;;;;423.55;210.10;;;2.10;99.90;;;;;;5094319;28;20024;-53
2024/01/23 08:33:31;;;;;;;468.38;226.27;;;2.00;99.90;;;;;;5094886;28;20030;-53
2024/01/23 08:35:57;;;;;;;435.70;212.27;;;2.10;99.90;;;;;;5092939;28;20115;-53
2024/01/23 08:38:24;;;;;;;400.88;202.85;;;2.00;99.90;;;;;;5095507;28;20024;-53
2024/01/23 08:40:50;;;;;;;349.25;175.93;;;2.20;99.90;;;;;;5095708;28;20366;-53
2024/01/23 08:43:16;;;;;;;338.65;167.35;;;2.20;99.90;;;;;;5092390;28;20374;-53
2024/01/23 08:45:42;;;;;;;326.25;164.50;;;2.30;99.90;;;;;;5084381;28;20036;-53
2024/01/23 08:48:08;;;;;;;334.50;163.95;;;2.30;99.90;;;;;;5094997;28;20029;-53
2024/01/23 08:50:35;;;;;;;346.77;170.10;;;2.50;99.90;;;;;;5094949;28;20028;-53
2024/01/23 08:53:01;;;;;;;343.15;165.43;;;2.40;99.90;;;;;;5094907;28;20111;-53
2024/01/23 08:55:27;;;;;;;328.20;163.45;;;2.60;99.90;;;;;;5092488;28;20023;-53
2024/01/23 08:57:53;;;;;;;312.13;155.30;;;2.80;99.90;;;;;;5093551;28;20027;-53
2024/01/23 09:00:19;;;;;;;313.58;152.23;;;2.80;99.90;;;;;;5095217;28;20034;-53
2024/01/23 09:02:45;;;;;;;328.65;159.18;;;2.80;99.90;;;;;;5095450;28;20465;-54
2024/01/23 09:05:12;;;;;;;336.02;164.60;;;2.70;99.90;;;;;;5094950;28;20378;-53
2024/01/23 09:07:37;;;;;;;339.67;166.25;;;2.60;99.90;;;;;;5094701;28;20052;-53
2024/01/23 09:10:04;;;;;;;370.23;177.98;;;2.70;99.90;;;;;;5093578;28;20031;-53
2024/01/23 09:12:33;;;;;;;374.67;177.05;;;2.70;99.90;;;;;;5094764;28;20464;-53
2024/01/23 09:14:59;;;;;;;375.90;175.85;;;2.50;99.90;;;;;;5093272;28;20032;-53
2024/01/23 09:17:25;;;;;;;367.67;178.98;;;2.50;99.90;;;;;;5095131;28;20032;-53
2024/01/23 09:19:52;;;;;;;412.00;203.35;;;2.50;99.90;;;;;;5088560;28;20051;-53
2024/01/23 09:22:18;;;;;;;414.23;203.57;;;2.50;99.90;;;;;;5092601;28;20032;-53
2024/01/23 09:24:43;;;;;;;398.60;195.45;;;2.50;99.90;;;;;;5093992;28;20040;-53
2024/01/23 09:27:10;;;;;;;385.27;186.98;;;2.60;99.90;;;;;;5094152;28;20424;-53
2024/01/23 09:29:35;;;;;;;381.92;176.95;;;2.60;99.90;;;;;;5094467;28;20016;-53
2024/01/23 09:32:01;;;;;;;374.52;177.88;;;2.80;99.90;;;;;;5094424;28;20031;-53
2024/01/23 09:34:27;;;;;;;370.85;178.80;;;2.90;99.90;;;;;;5085680;28;20501;-53
2024/01/23 09:36:53;;;;;;;365.60;170.23;;;2.90;99.90;;;;;;5074525;28;20107;-53
2024/01/23 09:39:19;;;;;;;355.55;168.23;;;2.90;99.90;;;;;;5074605;28;20035;-53
2024/01/23 09:41:50;;;;;;;352.48;166.63;;;3.00;99.90;;;;;;5074522;28;20028;-53
2024/01/23 09:44:19;;;;;;;358.83;167.55;;;2.90;99.90;;;;;;5085776;28;20132;-53
2024/01/23 09:46:45;;;;;;;352.58;158.98;;;3.00;99.90;;;;;;5094931;28;20489;-53
2024/01/23 09:49:12;;;;;;;334.00;157.48;;;3.10;99.90;;;;;;5094269;28;20112;-53
2024/01/23 09:51:41;;;;;;;323.20;154.88;;;3.10;99.90;;;;;;5094404;28;20496;-53
2024/01/23 09:54:10;;;;;;;338.05;160.57;;;3.30;99.90;;;;;;5094025;28;20421;-53
2024/01/23 09:56:38;;;;;;;337.98;160.90;;;3.50;99.90;;;;;;5097221;28;20043;-53
2024/01/23 09:59:04;;;;;;;321.10;152.15;;;3.50;99.90;;;;;;5094742;28;20386;-55
2024/01/23 10:01:30;;;;;;;341.42;161.20;;;3.50;99.90;;;;;;5089495;28;20111;-54
2024/01/23 10:03:58;;;;;;;339.40;169.10;;;3.50;99.90;;;;;;5089808;28;20093;-54
2024/01/23 10:06:25;;;;;;;300.40;149.13;;;3.70;99.90;;;;;;5096146;28;20111;-54
2024/01/23 10:08:51;;;;;;;327.27;163.60;;;3.80;99.90;;;;;;5097017;28;20020;-54
2024/01/23 10:11:17;;;;;;;268.45;138.60;;;3.80;99.90;;;;;;5097990;28;20374;-54
2024/01/23 10:13:43;;;;;;;314.73;150.52;;;3.90;99.90;;;;;;5096719;28;20013;-54
2024/01/23 10:16:10;;;;;;;279.73;143.90;;;3.90;99.90;;;;;;5097707;28;20097;-54
2024/01/23 10:18:36;;;;;;;309.52;152.38;;;3.90;99.90;;;;;;5097498;28;20040;-54
2024/01/23 10:21:02;;;;;;;326.20;160.65;;;4.00;99.90;;;;;;5097800;28;20036;-54
2024/01/23 10:23:28;;;;;;;324.05;154.65;;;4.00;99.90;;;;;;5097527;28;20024;-54
2024/01/23 10:25:58;;;;;;;305.63;149.40;;;4.00;99.90;;;;;;5097524;28;20040;-54
2024/01/23 10:28:24;;;;;;;305.17;154.32;;;3.90;99.90;;;;;;5097465;28;20098;-54
2024/01/23 10:30:49;;;;;;;323.23;158.18;;;4.00;99.90;;;;;;5097618;28;20099;-54
2024/01/23 10:33:16;;;;;;;311.50;156.50;;;4.00;99.90;;;;;;5089664;28;20037;-54
2024/01/23 10:35:42;;;;;;;306.75;159.20;;;4.00;99.90;;;;;;5084463;28;20040;-54
2024/01/23 10:38:13;;;;;;;321.20;161.95;;;4.20;99.90;;;;;;5094108;28;20114;-54
2024/01/23 10:40:39;;;;;;;329.25;171.00;;;4.20;99.90;;;;;;5091041;28;20074;-54
2024/01/23 10:43:06;;;;;;;344.33;174.02;;;4.20;99.90;;;;;;5096250;28;20032;-54
2024/01/23 10:45:32;;;;;;;336.80;178.63;;;4.20;99.90;;;;;;5097335;28;20032;-54
2024/01/23 10:48:00;;;;;;;336.15;168.77;;;4.30;99.90;;;;;;5092994;28;20035;-54
2024/01/23 10:50:29;;;;;;;347.80;186.75;;;4.40;99.90;;;;;;5086097;28;20378;-53
2024/01/23 10:53:06;;;;;;;346.70;192.18;;;4.40;99.90;;;;;;5091167;28;20055;-54
2024/01/23 10:55:32;;;;;;;366.38;202.80;;;4.60;99.90;;;;;;5095904;28;20024;-54
2024/01/23 10:58:10;;;;;;;373.25;199.43;;;4.80;99.90;;;;;;5096720;28;20537;-54
2024/01/23 11:00:37;;;;;;;354.02;197.30;;;4.80;99.90;;;;;;5097096;28;20024;-54
2024/01/23 11:03:05;;;;;;;342.88;185.00;;;4.80;99.90;;;;;;5096971;28;20024;-54
2024/01/23 11:05:49;;;;;;;308.30;161.38;;;4.80;99.90;;;;;;5096339;28;20164;-54
2024/01/23 11:08:33;;;;;;;308.40;166.48;;;4.80;99.90;;;;;;5096696;28;20040;-54
2024/01/23 11:11:09;;;;;;;285.65;149.43;;;4.80;99.90;;;;;;5076683;28;20083;-54
2024/01/23 11:13:46;;;;;;;271.95;144.70;;;4.90;99.90;;;;;;5082363;28;20463;-54
2024/01/23 11:16:12;;;;;;;254.48;136.65;;;5.00;99.90;;;;;;5095576;28;20452;-54
2024/01/23 11:18:40;;;;;;;257.17;141.95;;;5.10;99.90;;;;;;5092258;28;20071;-54
2024/01/23 11:21:08;;;;;;;230.55;130.27;;;5.10;99.90;;;;;;5096821;28;20077;-54
2024/01/23 11:23:38;;;;;;;225.60;122.35;;;5.10;99.90;;;;;;5095882;28;20024;-54
2024/01/23 11:26:04;;;;;;;233.68;126.65;;;5.00;99.90;;;;;;5095621;28;20385;-54
2024/01/23 11:28:37;;;;;;;252.75;133.48;;;4.90;99.90;;;;;;5096126;28;20067;-54
2024/01/23 11:31:13;;;;;;;241.70;134.75;;;5.00;99.90;;;;;;5095010;28;20032;-54
2024/01/23 11:33:39;;;;;;;228.18;128.20;;;5.10;99.90;;;;;;5095599;28;20111;-54
2024/01/23 11:36:21;;;;;;;230.75;127.53;;;5.30;99.90;;;;;;5091689;28;20065;-54
2024/01/23 11:38:56;;;;;;;234.18;131.45;;;5.40;99.90;;;;;;5095350;28;20054;-54
2024/01/23 11:41:27;;;;;;;262.70;138.68;;;5.40;99.90;;;;;;5095922;28;20028;-54
2024/01/23 11:44:15;;;;;;;270.35;146.85;;;5.40;99.90;;;;;;5096264;28;20080;-54
2024/01/23 11:46:42;;;;;;;273.40;147.27;;;5.50;99.90;;;;;;5096159;28;20129;-54
2024/01/23 11:49:10;;;;;;;260.77;143.20;;;5.70;99.90;;;;;;5095985;28;20392;-54
2024/01/23 11:51:37;;;;;;;283.08;153.55;;;5.80;99.90;;;;;;5096371;28;20032;-54
2024/01/23 11:54:09;;;;;;;248.75;138.00;;;5.80;99.90;;;;;;5096491;28;20070;-54
2024/01/23 11:56:41;;;;;;;260.05;145.60;;;5.80;99.90;;;;;;5095889;28;20078;-54
2024/01/23 11:59:08;;;;;;;252.45;140.95;;;6.10;99.90;;;;;;5096331;28;20032;-54
2024/01/23 12:01:36;;;;;;;215.43;122.93;;;6.30;99.90;;;;;;5093764;28;20028;-54
2024/01/23 12:04:02;;;;;;;214.00;120.32;;;6.60;99.90;;;;;;5094893;28;20020;-54
2024/01/23 12:06:31;;;;;;;210.43;123.57;;;6.80;99.90;;;;;;5095432;28;20425;-54
2024/01/23 12:08:57;;;;;;;212.88;119.18;;;7.10;99.90;;;;;;5094905;28;20028;-54
2024/01/23 12:11:23;;;;;;;168.48;91.32;;;7.60;99.90;;;;;;5095211;28;20012;-55